sensor_id;sensor_type;location;lat;lon;timestamp;P1;durP1;ratioP1;P2;durP2;ratioP2
13040;SDS011;6587;42.728;23.288;2024-02-14T00:01:19;8.83;;;6.17;;
13040;SDS011;6587;42.728;23.288;2024-02-14T00:03:47;8.73;;;5.80;;
13040;SDS011;6587;42.728;23.288;2024-02-14T00:06:14;8.93;;;5.80;;
13040;SDS011;6587;42.728;23.288;2024-02-14T00:08:41;8.20;;;5.83;;
13040;SDS011;6587;42.728;23.288;2024-02-14T00:11:09;7.57;;;5.60;;
13040;SDS011;6587;42.728;23.288;2024-02-14T00:13:36;9.07;;;6.40;;
13040;SDS011;6587;42.728;23.288;2024-02-14T00:16:03;8.73;;;5.77;;
13040;SDS011;6587;42.728;23.288;2024-02-14T00:18:31;9.33;;;5.87;;
13040;SDS011;6587;42.728;23.288;2024-02-14T00:20:58;9.40;;;6.10;;
13040;SDS011;6587;42.728;23.288;2024-02-14T00:23:25;10.60;;;6.13;;
13040;SDS011;6587;42.728;23.288;2024-02-14T00:25:52;8.07;;;5.70;;
13040;SDS011;6587;42.728;23.288;2024-02-14T00:28:20;9.83;;;5.93;;
13040;SDS011;6587;42.728;23.288;2024-02-14T00:30:49;8.63;;;5.80;;
13040;SDS011;6587;42.728;23.288;2024-02-14T00:33:15;10.20;;;6.53;;
13040;SDS011;6587;42.728;23.288;2024-02-14T00:35:44;10.33;;;5.97;;
13040;SDS011;6587;42.728;23.288;2024-02-14T00:38:10;10.10;;;6.20;;
13040;SDS011;6587;42.728;23.288;2024-02-14T00:40:37;8.90;;;6.03;;
13040;SDS011;6587;42.728;23.288;2024-02-14T00:43:04;8.80;;;6.63;;
13040;SDS011;6587;42.728;23.288;2024-02-14T00:45:32;9.60;;;5.57;;
13040;SDS011;6587;42.728;23.288;2024-02-14T00:48:00;7.57;;;5.63;;
13040;SDS011;6587;42.728;23.288;2024-02-14T00:50:29;9.00;;;5.93;;
13040;SDS011;6587;42.728;23.288;2024-02-14T00:52:55;9.90;;;6.63;;
13040;SDS011;6587;42.728;23.288;2024-02-14T00:55:22;8.83;;;5.97;;
13040;SDS011;6587;42.728;23.288;2024-02-14T00:57:49;9.43;;;6.27;;
13040;SDS011;6587;42.728;23.288;2024-02-14T01:00:16;9.53;;;6.43;;
13040;SDS011;6587;42.728;23.288;2024-02-14T01:02:45;12.17;;;6.87;;
13040;SDS011;6587;42.728;23.288;2024-02-14T01:05:12;9.93;;;6.17;;
13040;SDS011;6587;42.728;23.288;2024-02-14T01:07:38;10.70;;;6.73;;
13040;SDS011;6587;42.728;23.288;2024-02-14T01:10:06;8.47;;;5.97;;
13040;SDS011;6587;42.728;23.288;2024-02-14T01:12:33;9.93;;;6.83;;
13040;SDS011;6587;42.728;23.288;2024-02-14T01:15:00;8.70;;;6.57;;
13040;SDS011;6587;42.728;23.288;2024-02-14T01:17:26;11.13;;;6.77;;
13040;SDS011;6587;42.728;23.288;2024-02-14T01:19:55;9.13;;;6.87;;
13040;SDS011;6587;42.728;23.288;2024-02-14T01:22:23;10.33;;;6.50;;
13040;SDS011;6587;42.728;23.288;2024-02-14T01:24:50;11.23;;;7.00;;
13040;SDS011;6587;42.728;23.288;2024-02-14T01:27:16;9.23;;;6.80;;
13040;SDS011;6587;42.728;23.288;2024-02-14T01:29:43;12.63;;;7.30;;
13040;SDS011;6587;42.728;23.288;2024-02-14T01:32:10;10.80;;;7.17;;
13040;SDS011;6587;42.728;23.288;2024-02-14T01:34:37;12.23;;;7.03;;
13040;SDS011;6587;42.728;23.288;2024-02-14T01:37:05;10.80;;;7.33;;
13040;SDS011;6587;42.728;23.288;2024-02-14T01:39:32;13.10;;;7.20;;
13040;SDS011;6587;42.728;23.288;2024-02-14T01:41:59;10.00;;;6.63;;
13040;SDS011;6587;42.728;23.288;2024-02-14T01:44:26;12.03;;;7.30;;
13040;SDS011;6587;42.728;23.288;2024-02-14T01:46:52;10.57;;;7.00;;
13040;SDS011;6587;42.728;23.288;2024-02-14T01:49:19;10.83;;;7.23;;
13040;SDS011;6587;42.728;23.288;2024-02-14T01:51:46;9.90;;;6.70;;
13040;SDS011;6587;42.728;23.288;2024-02-14T01:54:14;11.70;;;7.70;;
13040;SDS011;6587;42.728;23.288;2024-02-14T01:56:42;10.37;;;6.93;;
13040;SDS011;6587;42.728;23.288;2024-02-14T01:59:10;13.73;;;8.40;;
13040;SDS011;6587;42.728;23.288;2024-02-14T02:01:37;11.37;;;7.77;;
13040;SDS011;6587;42.728;23.288;2024-02-14T02:04:04;14.60;;;7.93;;
13040;SDS011;6587;42.728;23.288;2024-02-14T02:06:31;11.30;;;7.10;;
13040;SDS011;6587;42.728;23.288;2024-02-14T02:08:59;11.93;;;7.53;;
13040;SDS011;6587;42.728;23.288;2024-02-14T02:11:28;11.60;;;7.13;;
13040;SDS011;6587;42.728;23.288;2024-02-14T02:13:55;12.20;;;7.20;;
13040;SDS011;6587;42.728;23.288;2024-02-14T02:16:21;11.57;;;7.80;;
13040;SDS011;6587;42.728;23.288;2024-02-14T02:18:49;12.03;;;8.07;;
13040;SDS011;6587;42.728;23.288;2024-02-14T02:21:15;10.30;;;7.23;;
13040;SDS011;6587;42.728;23.288;2024-02-14T02:23:47;12.03;;;7.20;;
13040;SDS011;6587;42.728;23.288;2024-02-14T02:26:13;11.90;;;7.13;;
13040;SDS011;6587;42.728;23.288;2024-02-14T02:28:40;10.90;;;7.13;;
13040;SDS011;6587;42.728;23.288;2024-02-14T02:31:07;12.77;;;7.90;;
13040;SDS011;6587;42.728;23.288;2024-02-14T02:33:35;12.13;;;7.63;;
13040;SDS011;6587;42.728;23.288;2024-02-14T02:36:02;11.70;;;7.63;;
13040;SDS011;6587;42.728;23.288;2024-02-14T02:38:31;12.40;;;7.97;;
13040;SDS011;6587;42.728;23.288;2024-02-14T02:40:59;10.70;;;7.27;;
13040;SDS011;6587;42.728;23.288;2024-02-14T02:43:26;12.97;;;7.77;;
13040;SDS011;6587;42.728;23.288;2024-02-14T02:45:53;12.70;;;7.73;;
13040;SDS011;6587;42.728;23.288;2024-02-14T02:48:20;11.90;;;8.07;;
13040;SDS011;6587;42.728;23.288;2024-02-14T02:50:48;11.30;;;7.60;;
13040;SDS011;6587;42.728;23.288;2024-02-14T02:53:15;15.37;;;8.40;;
13040;SDS011;6587;42.728;23.288;2024-02-14T02:55:43;13.03;;;8.03;;
13040;SDS011;6587;42.728;23.288;2024-02-14T02:58:11;11.70;;;7.80;;
13040;SDS011;6587;42.728;23.288;2024-02-14T03:00:38;13.33;;;8.20;;
13040;SDS011;6587;42.728;23.288;2024-02-14T03:03:07;14.53;;;8.43;;
13040;SDS011;6587;42.728;23.288;2024-02-14T03:05:34;13.37;;;8.60;;
13040;SDS011;6587;42.728;23.288;2024-02-14T03:08:01;13.23;;;8.30;;
13040;SDS011;6587;42.728;23.288;2024-02-14T03:10:28;12.37;;;8.27;;
13040;SDS011;6587;42.728;23.288;2024-02-14T03:12:55;12.20;;;8.33;;
13040;SDS011;6587;42.728;23.288;2024-02-14T03:15:23;12.97;;;8.83;;
13040;SDS011;6587;42.728;23.288;2024-02-14T03:17:51;16.47;;;9.80;;
13040;SDS011;6587;42.728;23.288;2024-02-14T03:20:18;17.13;;;9.77;;
13040;SDS011;6587;42.728;23.288;2024-02-14T03:22:45;14.17;;;8.73;;
13040;SDS011;6587;42.728;23.288;2024-02-14T03:25:12;12.60;;;8.40;;
13040;SDS011;6587;42.728;23.288;2024-02-14T03:27:40;12.23;;;7.93;;
13040;SDS011;6587;42.728;23.288;2024-02-14T03:30:07;15.57;;;8.47;;
13040;SDS011;6587;42.728;23.288;2024-02-14T03:32:36;12.53;;;8.30;;
13040;SDS011;6587;42.728;23.288;2024-02-14T03:35:03;12.73;;;8.10;;
13040;SDS011;6587;42.728;23.288;2024-02-14T03:37:31;11.43;;;7.90;;
13040;SDS011;6587;42.728;23.288;2024-02-14T03:39:58;14.17;;;8.40;;
13040;SDS011;6587;42.728;23.288;2024-02-14T03:42:25;12.77;;;7.93;;
13040;SDS011;6587;42.728;23.288;2024-02-14T03:44:52;22.57;;;11.87;;
13040;SDS011;6587;42.728;23.288;2024-02-14T03:47:25;13.90;;;8.60;;
13040;SDS011;6587;42.728;23.288;2024-02-14T03:49:53;16.40;;;9.23;;
13040;SDS011;6587;42.728;23.288;2024-02-14T03:52:20;14.33;;;9.13;;
13040;SDS011;6587;42.728;23.288;2024-02-14T03:54:47;13.60;;;8.53;;
13040;SDS011;6587;42.728;23.288;2024-02-14T03:57:15;11.47;;;8.20;;
13040;SDS011;6587;42.728;23.288;2024-02-14T03:59:43;14.00;;;8.87;;
13040;SDS011;6587;42.728;23.288;2024-02-14T04:02:09;12.63;;;8.70;;
13040;SDS011;6587;42.728;23.288;2024-02-14T04:04:36;12.97;;;8.17;;
13040;SDS011;6587;42.728;23.288;2024-02-14T04:07:06;12.13;;;8.07;;
13040;SDS011;6587;42.728;23.288;2024-02-14T04:09:33;12.00;;;8.03;;
13040;SDS011;6587;42.728;23.288;2024-02-14T04:12:00;18.27;;;9.40;;
13040;SDS011;6587;42.728;23.288;2024-02-14T04:14:27;16.57;;;9.17;;
13040;SDS011;6587;42.728;23.288;2024-02-14T04:16:54;14.50;;;8.53;;
13040;SDS011;6587;42.728;23.288;2024-02-14T04:19:21;14.47;;;9.07;;
13040;SDS011;6587;42.728;23.288;2024-02-14T04:21:48;13.07;;;8.80;;
13040;SDS011;6587;42.728;23.288;2024-02-14T04:24:16;15.30;;;8.90;;
13040;SDS011;6587;42.728;23.288;2024-02-14T04:26:43;12.83;;;8.63;;
13040;SDS011;6587;42.728;23.288;2024-02-14T04:29:10;13.03;;;8.20;;
13040;SDS011;6587;42.728;23.288;2024-02-14T04:31:37;17.20;;;8.83;;
13040;SDS011;6587;42.728;23.288;2024-02-14T04:34:04;14.77;;;9.37;;
13040;SDS011;6587;42.728;23.288;2024-02-14T04:36:33;14.27;;;9.77;;
13040;SDS011;6587;42.728;23.288;2024-02-14T04:39:00;14.73;;;9.73;;
13040;SDS011;6587;42.728;23.288;2024-02-14T04:41:29;18.80;;;10.60;;
13040;SDS011;6587;42.728;23.288;2024-02-14T04:43:56;17.47;;;9.27;;
13040;SDS011;6587;42.728;23.288;2024-02-14T04:46:23;17.43;;;10.40;;
13040;SDS011;6587;42.728;23.288;2024-02-14T04:48:49;15.80;;;9.50;;
13040;SDS011;6587;42.728;23.288;2024-02-14T04:51:16;15.30;;;9.70;;
13040;SDS011;6587;42.728;23.288;2024-02-14T04:53:43;18.83;;;9.90;;
13040;SDS011;6587;42.728;23.288;2024-02-14T04:56:10;14.80;;;9.37;;
13040;SDS011;6587;42.728;23.288;2024-02-14T04:58:38;16.03;;;10.60;;
13040;SDS011;6587;42.728;23.288;2024-02-14T05:01:05;19.90;;;10.33;;
13040;SDS011;6587;42.728;23.288;2024-02-14T05:03:32;15.87;;;10.47;;
13040;SDS011;6587;42.728;23.288;2024-02-14T05:05:59;16.77;;;10.20;;
13040;SDS011;6587;42.728;23.288;2024-02-14T05:08:27;17.40;;;10.30;;
13040;SDS011;6587;42.728;23.288;2024-02-14T05:10:54;14.57;;;9.73;;
13040;SDS011;6587;42.728;23.288;2024-02-14T05:13:21;17.77;;;10.23;;
13040;SDS011;6587;42.728;23.288;2024-02-14T05:15:50;21.57;;;11.77;;
13040;SDS011;6587;42.728;23.288;2024-02-14T05:18:17;18.80;;;10.57;;
13040;SDS011;6587;42.728;23.288;2024-02-14T05:20:44;18.83;;;11.30;;
13040;SDS011;6587;42.728;23.288;2024-02-14T05:23:11;18.43;;;11.23;;
13040;SDS011;6587;42.728;23.288;2024-02-14T05:25:38;17.07;;;10.93;;
13040;SDS011;6587;42.728;23.288;2024-02-14T05:28:05;15.97;;;10.87;;
13040;SDS011;6587;42.728;23.288;2024-02-14T05:30:32;21.33;;;10.30;;
13040;SDS011;6587;42.728;23.288;2024-02-14T05:33:03;20.23;;;11.23;;
13040;SDS011;6587;42.728;23.288;2024-02-14T05:35:30;16.37;;;11.20;;
13040;SDS011;6587;42.728;23.288;2024-02-14T05:37:56;20.80;;;11.27;;
13040;SDS011;6587;42.728;23.288;2024-02-14T05:40:23;18.53;;;11.53;;
13040;SDS011;6587;42.728;23.288;2024-02-14T05:42:50;15.97;;;10.00;;
13040;SDS011;6587;42.728;23.288;2024-02-14T05:45:17;18.97;;;11.53;;
13040;SDS011;6587;42.728;23.288;2024-02-14T05:47:44;18.80;;;11.40;;
13040;SDS011;6587;42.728;23.288;2024-02-14T05:50:12;17.90;;;11.00;;
13040;SDS011;6587;42.728;23.288;2024-02-14T05:52:39;18.83;;;10.97;;
13040;SDS011;6587;42.728;23.288;2024-02-14T05:55:07;29.20;;;12.37;;
13040;SDS011;6587;42.728;23.288;2024-02-14T05:57:34;19.00;;;11.73;;
13040;SDS011;6587;42.728;23.288;2024-02-14T06:00:01;17.23;;;10.30;;
13040;SDS011;6587;42.728;23.288;2024-02-14T06:02:36;17.03;;;10.50;;
13040;SDS011;6587;42.728;23.288;2024-02-14T06:05:05;14.63;;;9.60;;
13040;SDS011;6587;42.728;23.288;2024-02-14T06:07:36;16.97;;;9.33;;
13040;SDS011;6587;42.728;23.288;2024-02-14T06:10:02;18.53;;;10.97;;
13040;SDS011;6587;42.728;23.288;2024-02-14T06:12:31;17.27;;;10.43;;
13040;SDS011;6587;42.728;23.288;2024-02-14T06:14:58;18.37;;;11.17;;
13040;SDS011;6587;42.728;23.288;2024-02-14T06:17:25;19.20;;;10.60;;
13040;SDS011;6587;42.728;23.288;2024-02-14T06:19:52;16.87;;;10.17;;
13040;SDS011;6587;42.728;23.288;2024-02-14T06:22:19;15.67;;;9.83;;
13040;SDS011;6587;42.728;23.288;2024-02-14T06:24:47;17.27;;;11.00;;
13040;SDS011;6587;42.728;23.288;2024-02-14T06:27:14;15.60;;;10.23;;
13040;SDS011;6587;42.728;23.288;2024-02-14T06:29:41;14.70;;;9.77;;
13040;SDS011;6587;42.728;23.288;2024-02-14T06:32:08;18.47;;;10.13;;
13040;SDS011;6587;42.728;23.288;2024-02-14T06:34:35;15.37;;;10.03;;
13040;SDS011;6587;42.728;23.288;2024-02-14T06:37:02;20.37;;;12.73;;
13040;SDS011;6587;42.728;23.288;2024-02-14T06:39:29;16.80;;;9.87;;
13040;SDS011;6587;42.728;23.288;2024-02-14T06:41:58;16.13;;;10.17;;
13040;SDS011;6587;42.728;23.288;2024-02-14T06:44:24;15.40;;;9.17;;
13040;SDS011;6587;42.728;23.288;2024-02-14T06:46:51;16.87;;;9.33;;
13040;SDS011;6587;42.728;23.288;2024-02-14T06:49:18;15.23;;;9.20;;
13040;SDS011;6587;42.728;23.288;2024-02-14T06:51:45;19.23;;;10.33;;
13040;SDS011;6587;42.728;23.288;2024-02-14T06:54:12;14.07;;;8.70;;
13040;SDS011;6587;42.728;23.288;2024-02-14T06:56:38;14.23;;;9.27;;
13040;SDS011;6587;42.728;23.288;2024-02-14T06:59:06;12.30;;;8.47;;
13040;SDS011;6587;42.728;23.288;2024-02-14T07:01:33;15.40;;;8.27;;
13040;SDS011;6587;42.728;23.288;2024-02-14T07:04:00;15.73;;;9.73;;
13040;SDS011;6587;42.728;23.288;2024-02-14T07:06:28;12.47;;;8.70;;
13040;SDS011;6587;42.728;23.288;2024-02-14T07:08:55;13.67;;;9.30;;
13040;SDS011;6587;42.728;23.288;2024-02-14T07:11:22;12.37;;;8.67;;
13040;SDS011;6587;42.728;23.288;2024-02-14T07:13:49;12.20;;;8.13;;
13040;SDS011;6587;42.728;23.288;2024-02-14T07:16:17;16.07;;;8.43;;
13040;SDS011;6587;42.728;23.288;2024-02-14T07:18:44;15.13;;;8.87;;
13040;SDS011;6587;42.728;23.288;2024-02-14T07:21:11;13.67;;;8.30;;
13040;SDS011;6587;42.728;23.288;2024-02-14T07:23:38;14.27;;;8.97;;
13040;SDS011;6587;42.728;23.288;2024-02-14T07:26:04;14.00;;;8.70;;
13040;SDS011;6587;42.728;23.288;2024-02-14T07:28:31;12.83;;;8.37;;
13040;SDS011;6587;42.728;23.288;2024-02-14T07:30:58;13.47;;;9.37;;
13040;SDS011;6587;42.728;23.288;2024-02-14T07:33:26;14.47;;;8.47;;
13040;SDS011;6587;42.728;23.288;2024-02-14T07:35:53;12.37;;;7.90;;
13040;SDS011;6587;42.728;23.288;2024-02-14T07:38:20;12.50;;;7.87;;
13040;SDS011;6587;42.728;23.288;2024-02-14T07:40:48;12.57;;;7.87;;
13040;SDS011;6587;42.728;23.288;2024-02-14T07:43:15;10.40;;;7.03;;
13040;SDS011;6587;42.728;23.288;2024-02-14T07:45:41;11.77;;;7.83;;
13040;SDS011;6587;42.728;23.288;2024-02-14T07:48:08;11.47;;;7.90;;
13040;SDS011;6587;42.728;23.288;2024-02-14T07:50:37;15.60;;;8.57;;
13040;SDS011;6587;42.728;23.288;2024-02-14T07:53:04;14.00;;;8.90;;
13040;SDS011;6587;42.728;23.288;2024-02-14T07:55:31;12.40;;;7.77;;
13040;SDS011;6587;42.728;23.288;2024-02-14T07:57:58;11.10;;;7.30;;
13040;SDS011;6587;42.728;23.288;2024-02-14T08:00:26;11.00;;;7.53;;
13040;SDS011;6587;42.728;23.288;2024-02-14T08:02:52;11.27;;;7.80;;
13040;SDS011;6587;42.728;23.288;2024-02-14T08:05:19;14.30;;;8.07;;
13040;SDS011;6587;42.728;23.288;2024-02-14T08:07:47;11.37;;;7.53;;
13040;SDS011;6587;42.728;23.288;2024-02-14T08:10:14;12.40;;;7.53;;
13040;SDS011;6587;42.728;23.288;2024-02-14T08:12:41;12.33;;;7.60;;
13040;SDS011;6587;42.728;23.288;2024-02-14T08:15:08;10.67;;;7.50;;
13040;SDS011;6587;42.728;23.288;2024-02-14T08:17:36;12.03;;;8.40;;
13040;SDS011;6587;42.728;23.288;2024-02-14T08:20:03;14.73;;;8.27;;
13040;SDS011;6587;42.728;23.288;2024-02-14T08:22:31;11.50;;;7.83;;
13040;SDS011;6587;42.728;23.288;2024-02-14T08:24:59;11.33;;;7.87;;
13040;SDS011;6587;42.728;23.288;2024-02-14T08:27:26;13.73;;;7.93;;
13040;SDS011;6587;42.728;23.288;2024-02-14T08:29:53;12.23;;;8.03;;
13040;SDS011;6587;42.728;23.288;2024-02-14T08:32:20;14.97;;;8.03;;
13040;SDS011;6587;42.728;23.288;2024-02-14T08:34:47;12.20;;;7.70;;
13040;SDS011;6587;42.728;23.288;2024-02-14T08:37:15;14.80;;;7.93;;
13040;SDS011;6587;42.728;23.288;2024-02-14T08:39:42;11.43;;;7.53;;
13040;SDS011;6587;42.728;23.288;2024-02-14T08:42:10;13.40;;;6.27;;
13040;SDS011;6587;42.728;23.288;2024-02-14T08:44:37;11.47;;;6.73;;
13040;SDS011;6587;42.728;23.288;2024-02-14T08:47:03;12.03;;;7.83;;
13040;SDS011;6587;42.728;23.288;2024-02-14T08:49:30;11.47;;;7.33;;
13040;SDS011;6587;42.728;23.288;2024-02-14T08:51:57;11.20;;;7.23;;
13040;SDS011;6587;42.728;23.288;2024-02-14T08:54:24;13.87;;;7.97;;
13040;SDS011;6587;42.728;23.288;2024-02-14T08:56:53;11.23;;;7.60;;
13040;SDS011;6587;42.728;23.288;2024-02-14T08:59:25;12.97;;;7.67;;
13040;SDS011;6587;42.728;23.288;2024-02-14T09:01:51;9.97;;;6.53;;
13040;SDS011;6587;42.728;23.288;2024-02-14T09:04:18;10.10;;;7.23;;
13040;SDS011;6587;42.728;23.288;2024-02-14T09:06:45;11.57;;;7.83;;
13040;SDS011;6587;42.728;23.288;2024-02-14T09:09:12;13.90;;;7.57;;
13040;SDS011;6587;42.728;23.288;2024-02-14T09:11:40;14.20;;;7.90;;
13040;SDS011;6587;42.728;23.288;2024-02-14T09:14:07;13.07;;;7.77;;
13040;SDS011;6587;42.728;23.288;2024-02-14T09:16:37;13.17;;;7.73;;
13040;SDS011;6587;42.728;23.288;2024-02-14T09:19:04;13.23;;;8.77;;
13040;SDS011;6587;42.728;23.288;2024-02-14T09:21:32;11.73;;;7.80;;
13040;SDS011;6587;42.728;23.288;2024-02-14T09:24:00;10.70;;;7.60;;
13040;SDS011;6587;42.728;23.288;2024-02-14T09:26:28;10.60;;;7.23;;
13040;SDS011;6587;42.728;23.288;2024-02-14T09:28:55;12.20;;;8.47;;
13040;SDS011;6587;42.728;23.288;2024-02-14T09:31:21;11.63;;;7.30;;
13040;SDS011;6587;42.728;23.288;2024-02-14T09:33:50;9.87;;;6.43;;
13040;SDS011;6587;42.728;23.288;2024-02-14T09:36:18;13.63;;;8.47;;
13040;SDS011;6587;42.728;23.288;2024-02-14T09:38:46;11.73;;;7.63;;
13040;SDS011;6587;42.728;23.288;2024-02-14T09:41:14;11.53;;;7.63;;
13040;SDS011;6587;42.728;23.288;2024-02-14T09:43:47;11.43;;;7.47;;
13040;SDS011;6587;42.728;23.288;2024-02-14T09:46:15;10.30;;;6.47;;
13040;SDS011;6587;42.728;23.288;2024-02-14T09:48:43;11.00;;;7.30;;
13040;SDS011;6587;42.728;23.288;2024-02-14T09:51:12;10.70;;;7.03;;
13040;SDS011;6587;42.728;23.288;2024-02-14T09:53:39;16.00;;;7.50;;
13040;SDS011;6587;42.728;23.288;2024-02-14T09:56:06;10.60;;;7.13;;
13040;SDS011;6587;42.728;23.288;2024-02-14T09:58:36;10.13;;;6.90;;
13040;SDS011;6587;42.728;23.288;2024-02-14T10:01:04;12.07;;;7.23;;
13040;SDS011;6587;42.728;23.288;2024-02-14T10:03:31;11.17;;;7.10;;
13040;SDS011;6587;42.728;23.288;2024-02-14T10:05:59;13.33;;;8.30;;
13040;SDS011;6587;42.728;23.288;2024-02-14T10:08:27;10.43;;;7.17;;
13040;SDS011;6587;42.728;23.288;2024-02-14T10:10:56;11.60;;;6.77;;
13040;SDS011;6587;42.728;23.288;2024-02-14T10:13:26;12.97;;;7.30;;
13040;SDS011;6587;42.728;23.288;2024-02-14T10:15:53;11.50;;;6.90;;
13040;SDS011;6587;42.728;23.288;2024-02-14T10:18:20;10.20;;;6.63;;
13040;SDS011;6587;42.728;23.288;2024-02-14T10:20:54;11.57;;;7.27;;
13040;SDS011;6587;42.728;23.288;2024-02-14T10:23:21;10.67;;;7.27;;
13040;SDS011;6587;42.728;23.288;2024-02-14T10:25:50;11.93;;;6.93;;
13040;SDS011;6587;42.728;23.288;2024-02-14T10:28:18;7.50;;;5.80;;
13040;SDS011;6587;42.728;23.288;2024-02-14T10:30:47;13.13;;;7.77;;
13040;SDS011;6587;42.728;23.288;2024-02-14T10:33:14;8.77;;;5.90;;
13040;SDS011;6587;42.728;23.288;2024-02-14T10:35:42;9.07;;;6.43;;
13040;SDS011;6587;42.728;23.288;2024-02-14T10:38:09;8.77;;;6.53;;
13040;SDS011;6587;42.728;23.288;2024-02-14T10:40:36;10.53;;;6.93;;
13040;SDS011;6587;42.728;23.288;2024-02-14T10:43:06;15.27;;;7.70;;
13040;SDS011;6587;42.728;23.288;2024-02-14T10:45:34;11.30;;;8.07;;
13040;SDS011;6587;42.728;23.288;2024-02-14T10:48:01;13.10;;;8.00;;
13040;SDS011;6587;42.728;23.288;2024-02-14T10:50:31;13.13;;;8.07;;
13040;SDS011;6587;42.728;23.288;2024-02-14T10:53:00;12.63;;;7.57;;
13040;SDS011;6587;42.728;23.288;2024-02-14T10:55:31;10.33;;;5.80;;
13040;SDS011;6587;42.728;23.288;2024-02-14T10:57:59;9.63;;;6.30;;
13040;SDS011;6587;42.728;23.288;2024-02-14T11:00:29;10.37;;;6.47;;
13040;SDS011;6587;42.728;23.288;2024-02-14T11:02:57;9.00;;;6.40;;
13040;SDS011;6587;42.728;23.288;2024-02-14T11:05:25;10.60;;;6.50;;
13040;SDS011;6587;42.728;23.288;2024-02-14T11:07:52;9.30;;;6.50;;
13040;SDS011;6587;42.728;23.288;2024-02-14T11:10:20;10.37;;;7.20;;
13040;SDS011;6587;42.728;23.288;2024-02-14T11:12:48;9.07;;;6.67;;
13040;SDS011;6587;42.728;23.288;2024-02-14T11:15:16;8.33;;;6.17;;
13040;SDS011;6587;42.728;23.288;2024-02-14T11:17:45;12.00;;;6.70;;
13040;SDS011;6587;42.728;23.288;2024-02-14T11:20:17;12.23;;;7.10;;
13040;SDS011;6587;42.728;23.288;2024-02-14T11:22:54;9.47;;;6.30;;
13040;SDS011;6587;42.728;23.288;2024-02-14T11:25:23;11.13;;;7.27;;
13040;SDS011;6587;42.728;23.288;2024-02-14T11:27:54;10.43;;;6.53;;
13040;SDS011;6587;42.728;23.288;2024-02-14T11:30:31;13.13;;;7.97;;
13040;SDS011;6587;42.728;23.288;2024-02-14T11:33:14;13.90;;;7.80;;
13040;SDS011;6587;42.728;23.288;2024-02-14T11:35:43;11.57;;;6.63;;
13040;SDS011;6587;42.728;23.288;2024-02-14T11:38:10;12.27;;;7.67;;
13040;SDS011;6587;42.728;23.288;2024-02-14T11:40:37;15.07;;;7.93;;
13040;SDS011;6587;42.728;23.288;2024-02-14T11:43:04;9.67;;;6.77;;
13040;SDS011;6587;42.728;23.288;2024-02-14T11:45:32;12.80;;;7.17;;
13040;SDS011;6587;42.728;23.288;2024-02-14T11:47:59;11.40;;;7.03;;
13040;SDS011;6587;42.728;23.288;2024-02-14T11:50:27;11.53;;;6.90;;
13040;SDS011;6587;42.728;23.288;2024-02-14T11:52:55;10.27;;;6.40;;
13040;SDS011;6587;42.728;23.288;2024-02-14T11:55:27;11.00;;;7.83;;
13040;SDS011;6587;42.728;23.288;2024-02-14T11:57:54;9.17;;;6.77;;
13040;SDS011;6587;42.728;23.288;2024-02-14T12:00:21;9.20;;;6.03;;
13040;SDS011;6587;42.728;23.288;2024-02-14T12:02:49;10.13;;;6.43;;
13040;SDS011;6587;42.728;23.288;2024-02-14T12:05:17;10.53;;;6.17;;
13040;SDS011;6587;42.728;23.288;2024-02-14T12:07:45;13.00;;;7.23;;
13040;SDS011;6587;42.728;23.288;2024-02-14T12:10:12;9.37;;;6.40;;
13040;SDS011;6587;42.728;23.288;2024-02-14T12:12:39;12.77;;;6.97;;
13040;SDS011;6587;42.728;23.288;2024-02-14T12:15:09;11.87;;;7.17;;
13040;SDS011;6587;42.728;23.288;2024-02-14T12:17:36;11.20;;;6.70;;
13040;SDS011;6587;42.728;23.288;2024-02-14T12:20:08;8.60;;;6.10;;
13040;SDS011;6587;42.728;23.288;2024-02-14T12:22:36;8.93;;;6.30;;
13040;SDS011;6587;42.728;23.288;2024-02-14T12:25:05;13.40;;;7.17;;
13040;SDS011;6587;42.728;23.288;2024-02-14T12:27:33;15.17;;;7.10;;
13040;SDS011;6587;42.728;23.288;2024-02-14T12:30:02;13.53;;;7.23;;
13040;SDS011;6587;42.728;23.288;2024-02-14T12:32:30;11.33;;;7.30;;
13040;SDS011;6587;42.728;23.288;2024-02-14T12:34:57;10.80;;;6.77;;
13040;SDS011;6587;42.728;23.288;2024-02-14T12:37:24;11.77;;;6.03;;
13040;SDS011;6587;42.728;23.288;2024-02-14T12:39:51;8.80;;;6.87;;
13040;SDS011;6587;42.728;23.288;2024-02-14T12:42:20;9.53;;;6.03;;
13040;SDS011;6587;42.728;23.288;2024-02-14T12:44:50;9.67;;;6.33;;
13040;SDS011;6587;42.728;23.288;2024-02-14T12:47:18;9.77;;;6.53;;
13040;SDS011;6587;42.728;23.288;2024-02-14T12:49:46;16.93;;;7.77;;
13040;SDS011;6587;42.728;23.288;2024-02-14T12:52:13;10.80;;;7.27;;
13040;SDS011;6587;42.728;23.288;2024-02-14T12:54:40;9.23;;;6.37;;
13040;SDS011;6587;42.728;23.288;2024-02-14T12:57:07;8.87;;;5.70;;
13040;SDS011;6587;42.728;23.288;2024-02-14T12:59:35;9.60;;;5.97;;
13040;SDS011;6587;42.728;23.288;2024-02-14T13:02:02;9.40;;;5.80;;
13040;SDS011;6587;42.728;23.288;2024-02-14T13:04:31;13.13;;;6.87;;
13040;SDS011;6587;42.728;23.288;2024-02-14T13:06:58;12.37;;;6.53;;
13040;SDS011;6587;42.728;23.288;2024-02-14T13:09:25;10.77;;;6.33;;
13040;SDS011;6587;42.728;23.288;2024-02-14T13:11:53;10.37;;;6.30;;
13040;SDS011;6587;42.728;23.288;2024-02-14T13:14:20;8.23;;;5.60;;
13040;SDS011;6587;42.728;23.288;2024-02-14T13:16:48;9.47;;;6.10;;
13040;SDS011;6587;42.728;23.288;2024-02-14T13:19:14;13.80;;;7.50;;
13040;SDS011;6587;42.728;23.288;2024-02-14T13:21:42;10.17;;;6.77;;
13040;SDS011;6587;42.728;23.288;2024-02-14T13:24:10;9.67;;;6.37;;
13040;SDS011;6587;42.728;23.288;2024-02-14T13:26:39;12.20;;;6.83;;
13040;SDS011;6587;42.728;23.288;2024-02-14T13:29:06;11.93;;;6.60;;
13040;SDS011;6587;42.728;23.288;2024-02-14T13:31:33;9.53;;;6.20;;
13040;SDS011;6587;42.728;23.288;2024-02-14T13:34:01;12.43;;;6.70;;
13040;SDS011;6587;42.728;23.288;2024-02-14T13:36:29;11.53;;;6.17;;
13040;SDS011;6587;42.728;23.288;2024-02-14T13:38:56;9.83;;;6.47;;
13040;SDS011;6587;42.728;23.288;2024-02-14T13:41:23;11.20;;;6.30;;
13040;SDS011;6587;42.728;23.288;2024-02-14T13:43:50;14.73;;;6.17;;
13040;SDS011;6587;42.728;23.288;2024-02-14T13:46:17;10.27;;;6.30;;
13040;SDS011;6587;42.728;23.288;2024-02-14T13:48:44;10.77;;;7.03;;
13040;SDS011;6587;42.728;23.288;2024-02-14T13:51:12;12.37;;;7.50;;
13040;SDS011;6587;42.728;23.288;2024-02-14T13:53:39;9.27;;;6.40;;
13040;SDS011;6587;42.728;23.288;2024-02-14T13:56:06;9.70;;;6.20;;
13040;SDS011;6587;42.728;23.288;2024-02-14T13:58:33;14.37;;;7.47;;
13040;SDS011;6587;42.728;23.288;2024-02-14T14:01:00;26.30;;;16.03;;
13040;SDS011;6587;42.728;23.288;2024-02-14T14:03:26;26.67;;;17.40;;
13040;SDS011;6587;42.728;23.288;2024-02-14T14:05:55;9.27;;;6.53;;
13040;SDS011;6587;42.728;23.288;2024-02-14T14:08:23;9.83;;;6.57;;
13040;SDS011;6587;42.728;23.288;2024-02-14T14:10:50;9.40;;;6.37;;
13040;SDS011;6587;42.728;23.288;2024-02-14T14:13:17;10.93;;;7.13;;
13040;SDS011;6587;42.728;23.288;2024-02-14T14:15:43;9.93;;;6.00;;
13040;SDS011;6587;42.728;23.288;2024-02-14T14:18:10;9.03;;;6.50;;
13040;SDS011;6587;42.728;23.288;2024-02-14T14:20:37;9.47;;;5.73;;
13040;SDS011;6587;42.728;23.288;2024-02-14T14:23:04;12.83;;;6.20;;
13040;SDS011;6587;42.728;23.288;2024-02-14T14:25:32;10.03;;;5.47;;
13040;SDS011;6587;42.728;23.288;2024-02-14T14:27:59;14.43;;;7.17;;
13040;SDS011;6587;42.728;23.288;2024-02-14T14:30:27;9.23;;;6.03;;
13040;SDS011;6587;42.728;23.288;2024-02-14T14:32:54;11.00;;;6.50;;
13040;SDS011;6587;42.728;23.288;2024-02-14T14:35:21;10.47;;;6.60;;
13040;SDS011;6587;42.728;23.288;2024-02-14T14:37:48;11.63;;;6.30;;